Jepson Prairie Reserve, California Weather observations

Data are for 10 minute period ending at time listed.
 Day   Time   Solar   Ave.   Ave.  Ave.  Vector  Max.   Baro.   Total    
  of    of     Rad.   Air    Rel.  Wind   Wind   Wind  Press.  Precip.   
Year   Day            Temp.  Hum.  Speed  Dir.   Gust                    
2015   (PST)  Kw/m2    F      %     mph   deg.    mph    mb.     in.     
-------------------------------------------------------------------------
  86    6:10   0.01   46.3   100    5.3   233     5.8   1016.3    0.00 
  86    6:20   0.03   47.0    99    5.8   228     6.6   1016.6    0.00 
  86    6:30   0.05   47.8    99    6.3   217     7.6   1016.6    0.00 
  86    6:40   0.07   49.4    99    6.5   220     7.0   1016.6    0.00 
  86    6:50   0.10   50.9    98    6.3   218     7.2   1016.6    0.00 
  86    7:00   0.14   52.6    96    5.9   221     7.4   1016.6    0.00 
  86    7:10   0.17   54.5    95    4.3   224     5.8   1016.9    0.00 
  86    7:20   0.20   56.9    91    4.4   221     6.0   1016.9    0.00 
  86    7:30   0.23   58.4    89    5.4   220     7.0   1016.9    0.00 
  86    7:40   0.26   59.3    88    6.6   224     8.3   1017.3    0.00 
  86    7:50   0.29   60.2    87    7.7   222     9.1   1017.6    0.00 
  86    8:00   0.32   61.0    86    8.2   214     9.7   1017.6    0.00 
  86    8:10   0.35   62.1    84    7.3   216     9.1   1018.0    0.00 
  86    8:20   0.38   63.2    80    8.2   218    10.2   1018.0    0.00 
  86    8:30   0.41   64.0    77    9.3   220    11.0   1018.0    0.00 
  86    8:40   0.45   65.0    75    9.4   215    11.9   1018.0    0.00 
  86    8:50   0.47   65.5    72    9.1   218    11.3   1018.3    0.00 
  86    9:00   0.50   66.3    73    8.3   211    10.7   1018.3    0.00 
  86    9:10   0.53   66.8    71    8.3   214    10.3   1018.6    0.00 
  86    9:20   0.56   67.6    70    7.7   210     9.5   1018.6    0.00 
  86    9:30   0.58   68.3    68    7.0   210     9.9   1018.3    0.00 
  86    9:40   0.61   69.3    68    6.7   207     9.6   1018.6    0.00 
  86    9:50   0.63   70.3    66    7.2   226    10.7   1018.6    0.00 
  86   10:00   0.66   70.9    65    8.9   233    12.2   1018.6    0.00 
  86   10:10   0.68   70.6    66   10.6   236    13.9   1018.6    0.00 
  86   10:20   0.70   70.6    65    9.6   230    12.0   1018.3    0.00 
  86   10:30   0.72   70.5    64    9.2   222    12.6   1018.3    0.00 
  86   10:40   0.73   71.4    63    8.9   210    12.1   1018.3    0.00 
  86   10:50   0.75   72.2    61    9.5   209    12.1   1018.3    0.00 
  86   11:00   0.76   72.5    58   10.8   204    13.4   1018.3    0.00 
  86   11:10   0.78   73.0    57   10.7   203    13.6   1018.3    0.00 
  86   11:20   0.79   74.0    56   11.5   207    16.1   1018.0    0.00 
  86   11:30   0.79   74.1    54   12.3   208    15.3   1018.0    0.00 
  86   11:40   0.80   74.5    53   11.8   212    15.5   1018.0    0.00 
  86   11:50   0.80   74.4    55   13.4   226    16.9   1018.0    0.00 
  86   12:00   0.80   74.2    54   14.5   226    18.7   1018.0    0.00 
  86   12:10   0.80   73.5    53   15.7   224    20.8   1017.6    0.00 
  86   12:20   0.80   73.5    52   13.9   219    17.3   1017.6    0.00 
  86   12:30   0.80   74.3    51   12.2   217    15.9   1017.6    0.00 
  86   12:40   0.80   75.5    50   10.9   217    14.0   1017.3    0.00 
  86   12:50   0.80   76.0    47   12.1   214    16.7   1017.3    0.00 
  86   13:00   0.79   75.9    46   14.9   219    18.4   1016.9    0.00 
  86   13:10   0.78   75.7    49   14.1   224    18.0   1016.9    0.00 
  86   13:20   0.77   75.7    50   14.6   218    19.4   1016.6    0.00 
  86   13:30   0.76   75.3    51   15.1   213    18.8   1016.6    0.00 
  86   13:40   0.75   75.4    51   14.4   210    18.9   1016.6    0.00 
  86   13:50   0.73   75.5    50   14.7   219    19.6   1016.6    0.00 
  86   14:00   0.72   75.3    52   17.2   216    21.3   1016.3    0.00 
  86   14:10   0.70   73.8    53   20.4   220    25.9   1016.6    0.00 
  86   14:20   0.68   73.6    54   19.3   222    24.2   1016.3    0.00 
  86   14:30   0.66   74.1    55   17.0   214    20.4   1016.3    0.00 
  86   14:40   0.64   74.4    52   17.9   214    23.0   1016.3    0.00 
  86   14:50   0.62   74.1    54   20.3   216    24.3   1015.9    0.00 
  86   15:00   0.59   73.7    54   19.9   216    25.7   1015.9    0.00 
  86   15:10   0.56   73.0    53   21.0   219    26.2   1015.9    0.00 
  86   15:20   0.54   73.2    53   19.6   216    23.8   1015.9    0.00 
  86   15:30   0.51   73.1    52   19.4   212    23.2   1015.9    0.00 
  86   15:40   0.48   73.3    53   18.1   210    22.6   1015.9    0.00 
  86   15:50   0.45   73.2    52   19.6   215    23.8   1015.9    0.00 
  86   16:00   0.42   72.6    52   18.7   215    23.2   1015.9    0.00 
  86   16:10   0.39   72.8    53   17.3   217    21.6   1015.9    0.00 
  86   16:20   0.36   72.5    53   17.5   212    21.0   1015.6    0.00 
  86   16:30   0.33   72.4    52   15.9   213    18.7   1015.6    0.00 
  86   16:40   0.29   72.4    52   15.8   216    20.5   1015.9    0.00 
  86   16:50   0.26   72.0    54   16.2   213    19.8   1015.9    0.00 
  86   17:00   0.23   71.4    54   16.2   221    20.4   1015.9    0.00 
  86   17:10   0.20   70.8    55   17.4   216    21.5   1015.9    0.00 
  86   17:20   0.16   70.0    57   17.2   219    20.8   1015.9    0.00 
  86   17:30   0.13   69.3    58   16.5   219    20.2   1015.9    0.00 
  86   17:40   0.10   68.6    61   15.0   218    18.5   1015.9    0.00 
  86   17:50   0.07   67.7    62   13.4   222    17.5   1015.9    0.00 
  86   18:00   0.06   66.8    64   12.5   213    16.0   1016.3    0.00 
  86   18:10   0.03   65.3    66   11.6   220    15.7   1016.3    0.00 
  86   18:20   0.01   63.9    69   10.6   223    14.7   1016.3    0.00 
  86   18:30   0.00   62.6    72    8.2   227    11.8   1016.6    0.00 
  86   18:40   0.00   62.0    71   11.1   216    14.4   1016.3    0.00 
  86   18:50   0.00   61.1    72   12.1   203    15.9   1016.3    0.00 
  86   19:00   0.00   60.0    76   15.2   198    17.2   1016.3    0.00 
  86   19:10   0.00   59.3    82   15.3   206    18.5   1016.3    0.00 
  86   19:20   0.00   60.0    78   15.3   217    18.6   1016.6    0.00 
  86   19:30   0.00   59.9    76   16.4   219    20.8   1016.6    0.00 
  86   19:40   0.00   59.2    79   14.8   218    18.6   1016.6    0.00 
  86   19:50   0.00   58.7    80   18.0   218    22.9   1016.6    0.00 
  86   20:00   0.00   58.5    80   20.8   217    24.5   1016.6    0.00 
  86   20:10   0.00   58.2    79   19.6   215    24.8   1016.9    0.00 
  86   20:20   0.00   58.0    80   18.7   213    22.6   1016.9    0.00 
  86   20:30   0.00   57.7    80   18.2   214    23.9   1016.9    0.00 
  86   20:40   0.00   57.7    78   22.0   213    28.1   1016.9    0.00 
  86   20:50   0.00   57.4    79   24.0   214    29.7   1016.9    0.00 
  86   21:00   0.00   57.2    80   23.4   217    28.9   1016.9    0.00 
  86   21:10   0.00   57.0    80   21.9   218    27.5   1016.9    0.00 
  86   21:20   0.00   57.0    80   21.7   218    26.2   1016.9    0.00 
  86   21:30   0.00   56.7    81   20.2   223    24.3   1017.3    0.00 
  86   21:40   0.00   56.5    83   21.5   220    26.2   1017.3    0.00 
  86   21:50   0.00   56.3    84   18.5   216    22.7   1017.3    0.00 
  86   22:00   0.00   56.6    83   17.5   218    22.9   1017.3    0.00 
  86   22:10   0.00   56.6    84   17.7   213    22.4   1017.3    0.00 
  86   22:20   0.00   56.8    84   19.7   210    25.1   1016.9    0.00 
  86   22:30   0.00   56.8    85   19.5   209    23.8   1016.9    0.00 
  86   22:40   0.00   56.6    85   18.8   209    23.6   1017.3    0.00 
  86   22:50   0.00   56.3    86   19.5   212    24.3   1017.3    0.00 
  86   23:00   0.00   56.2    86   20.4   211    24.5   1016.9    0.00 
  86   23:10   0.00   55.9    86   17.1   206    23.5   1016.9    0.00 
  86   23:20   0.00   55.5    87   15.7   202    19.4   1016.9    0.00 
  86   23:30   0.00   55.3    86   13.3   197    17.3   1017.3    0.00 
  86   23:40   0.00   55.3    83   13.4   188    21.0   1017.3    0.00 
  86   23:50   0.00   55.1    83   11.8   192    17.2   1017.3    0.00 
  87    0:00   0.00   54.9    84   11.9   211    16.7   1016.9    0.00 
  87    0:10   0.00   54.7    85   16.0   214    20.1   1016.9    0.00 
  87    0:20   0.00   54.6    85   15.8   213    20.9   1016.6    0.00 
  87    0:30   0.00   54.8    84   17.6   212    21.9   1016.9    0.00 
  87    0:40   0.00   54.8    83   17.5   210    22.3   1016.9    0.00 
  87    0:50   0.00   54.5    83   18.3   210    22.4   1016.9    0.00 
  87    1:00   0.00   54.4    83   17.3   205    20.8   1016.9    0.00 
  87    1:10   0.00   54.0    84   15.5   205    20.7   1017.3    0.00 
  87    1:20   0.00   53.5    85   13.2   204    16.9   1017.3    0.00 
  87    1:30   0.00   53.3    85   12.6   211    15.6   1017.3    0.00 
  87    1:40   0.00   53.0    85   13.4   210    16.5   1017.3    0.00 
  87    1:50   0.00   52.8    86   13.1   212    17.4   1017.3    0.00 
  87    2:00   0.00   52.4    87   13.3   208    15.9   1017.3    0.00 
  87    2:10   0.00   52.2    87   13.1   206    15.5   1016.9    0.00 
  87    2:20   0.00   52.0    87   12.1   202    15.6   1016.9    0.00 
  87    2:30   0.00   51.7    88   12.9   210    16.7   1016.9    0.00 
  87    2:40   0.00   52.2    87   13.6   215    17.0   1016.9    0.00 
  87    2:50   0.00   52.2    87   12.8   213    15.3   1016.9    0.00 
  87    3:00   0.00   52.1    87   11.8   214    15.6   1016.9    0.00 
  87    3:10   0.00   52.0    88   11.2   212    13.9   1016.9    0.00 
  87    3:20   0.00   51.8    88   10.1   208    12.2   1016.9    0.00 
  87    3:30   0.00   51.9    87   10.7   199    13.2   1016.9    0.00 
  87    3:40   0.00   51.7    87   11.2   200    14.2   1016.9    0.00 
  87    3:50   0.00   51.9    87   10.3   210    15.3   1017.3    0.00 
  87    4:00   0.00   52.3    86    9.6   222    13.2   1017.3    0.00 
  87    4:10   0.00   52.0    86    6.6   237     9.7   1017.6    0.00 
  87    4:20   0.00   51.3    87    6.1   239     8.3   1017.6    0.00 
  87    4:30   0.00   50.3    89    6.6   234     8.4   1017.6    0.00 
  87    4:40   0.00   50.1    89    5.8   236     7.2   1018.0    0.00 
  87    4:50   0.00   50.3    88    5.5   256     7.6   1018.0    0.00 
  87    5:00   0.00   51.2    86    4.1   264     6.6   1018.0    0.00 
  87    5:10   0.00   51.9    85    4.4   292     6.4   1018.0    0.00 
  87    5:20   0.00   52.3    83    4.5   286     7.1   1018.3    0.00 
  87    5:30   0.00   52.1    85    2.5   309     4.2   1018.3    0.00 
  87    5:40   0.00   51.6    85    1.4   291     2.4   1018.3    0.00 
  87    5:50   0.00   49.2    86    1.4   267     2.8   1018.6    0.00 
  87    6:00   0.00   47.8    91    0.7   264     2.6   1018.6    0.00 

Return to Jepson Prairie Reserve graphs page.


Western Regional Climate Center,wrcc@dri.edu